sensor_id;sensor_type;location;lat;lon;timestamp;temperature;humidity
790;DHT22;378;48.844;9.156;2023-05-10T00:01:20;13.20;99.90
790;DHT22;378;48.844;9.156;2023-05-10T00:03:47;13.00;99.90
790;DHT22;378;48.844;9.156;2023-05-10T00:06:14;12.90;99.90
790;DHT22;378;48.844;9.156;2023-05-10T00:08:41;12.90;99.90
790;DHT22;378;48.844;9.156;2023-05-10T00:11:07;12.90;99.90
790;DHT22;378;48.844;9.156;2023-05-10T00:13:36;12.80;99.90
790;DHT22;378;48.844;9.156;2023-05-10T00:16:03;12.80;99.90
790;DHT22;378;48.844;9.156;2023-05-10T00:18:29;12.70;99.90
790;DHT22;378;48.844;9.156;2023-05-10T00:20:56;12.60;99.90
790;DHT22;378;48.844;9.156;2023-05-10T00:23:23;12.60;99.90
790;DHT22;378;48.844;9.156;2023-05-10T00:25:50;12.60;99.90
790;DHT22;378;48.844;9.156;2023-05-10T00:28:18;12.50;99.90
790;DHT22;378;48.844;9.156;2023-05-10T00:30:46;12.50;99.90
790;DHT22;378;48.844;9.156;2023-05-10T00:33:13;12.50;99.90
790;DHT22;378;48.844;9.156;2023-05-10T00:35:40;12.40;99.90
790;DHT22;378;48.844;9.156;2023-05-10T00:38:06;12.40;99.90
790;DHT22;378;48.844;9.156;2023-05-10T00:40:35;12.30;99.90
790;DHT22;378;48.844;9.156;2023-05-10T00:43:02;12.30;99.90
790;DHT22;378;48.844;9.156;2023-05-10T00:45:29;12.30;99.90
790;DHT22;378;48.844;9.156;2023-05-10T00:47:58;12.30;99.90
790;DHT22;378;48.844;9.156;2023-05-10T00:50:25;12.30;99.90
790;DHT22;378;48.844;9.156;2023-05-10T00:52:52;12.30;99.90
790;DHT22;378;48.844;9.156;2023-05-10T00:55:20;12.30;99.90
790;DHT22;378;48.844;9.156;2023-05-10T00:57:47;12.30;99.90
790;DHT22;378;48.844;9.156;2023-05-10T01:00:14;12.30;99.90
790;DHT22;378;48.844;9.156;2023-05-10T01:02:43;12.20;99.90
790;DHT22;378;48.844;9.156;2023-05-10T01:05:13;12.20;99.90
790;DHT22;378;48.844;9.156;2023-05-10T01:07:40;12.20;99.90
790;DHT22;378;48.844;9.156;2023-05-10T01:10:07;12.10;99.90
790;DHT22;378;48.844;9.156;2023-05-10T01:12:36;12.10;99.90
790;DHT22;378;48.844;9.156;2023-05-10T01:15:05;12.10;99.90
790;DHT22;378;48.844;9.156;2023-05-10T01:17:33;12.10;99.90
790;DHT22;378;48.844;9.156;2023-05-10T01:20:01;12.10;99.90
790;DHT22;378;48.844;9.156;2023-05-10T01:22:47;12.00;99.90
790;DHT22;378;48.844;9.156;2023-05-10T01:25:35;12.00;99.90
790;DHT22;378;48.844;9.156;2023-05-10T01:28:43;12.10;99.90
790;DHT22;378;48.844;9.156;2023-05-10T01:31:28;12.00;99.90
790;DHT22;378;48.844;9.156;2023-05-10T01:34:01;12.10;99.90
790;DHT22;378;48.844;9.156;2023-05-10T01:36:31;12.10;99.90
790;DHT22;378;48.844;9.156;2023-05-10T01:39:02;12.10;99.90
790;DHT22;378;48.844;9.156;2023-05-10T01:41:41;12.10;99.90
790;DHT22;378;48.844;9.156;2023-05-10T01:44:18;12.10;99.90
790;DHT22;378;48.844;9.156;2023-05-10T01:46:51;12.10;99.90
790;DHT22;378;48.844;9.156;2023-05-10T01:49:24;12.10;99.90
790;DHT22;378;48.844;9.156;2023-05-10T01:51:54;12.10;99.90
790;DHT22;378;48.844;9.156;2023-05-10T01:54:22;12.00;99.90
790;DHT22;378;48.844;9.156;2023-05-10T01:56:55;12.00;99.90
790;DHT22;378;48.844;9.156;2023-05-10T01:59:29;12.10;99.90
790;DHT22;378;48.844;9.156;2023-05-10T02:01:58;12.10;99.90
790;DHT22;378;48.844;9.156;2023-05-10T02:04:27;12.10;99.90
790;DHT22;378;48.844;9.156;2023-05-10T02:06:55;12.10;99.90
790;DHT22;378;48.844;9.156;2023-05-10T02:09:23;12.10;99.90
790;DHT22;378;48.844;9.156;2023-05-10T02:11:52;12.10;99.90
790;DHT22;378;48.844;9.156;2023-05-10T02:14:21;12.10;99.90
790;DHT22;378;48.844;9.156;2023-05-10T02:16:51;12.10;99.90
790;DHT22;378;48.844;9.156;2023-05-10T02:19:18;12.00;99.90
790;DHT22;378;48.844;9.156;2023-05-10T02:21:49;12.00;99.90
790;DHT22;378;48.844;9.156;2023-05-10T02:24:17;12.00;99.90
790;DHT22;378;48.844;9.156;2023-05-10T02:26:45;12.00;99.90
790;DHT22;378;48.844;9.156;2023-05-10T02:29:14;12.00;99.90
790;DHT22;378;48.844;9.156;2023-05-10T02:31:41;12.00;99.90
790;DHT22;378;48.844;9.156;2023-05-10T02:34:10;12.00;99.90
790;DHT22;378;48.844;9.156;2023-05-10T02:36:38;12.10;99.90
790;DHT22;378;48.844;9.156;2023-05-10T02:39:08;12.10;99.90
790;DHT22;378;48.844;9.156;2023-05-10T02:41:40;12.10;99.90
790;DHT22;378;48.844;9.156;2023-05-10T02:44:07;12.10;99.90
790;DHT22;378;48.844;9.156;2023-05-10T02:46:35;12.10;99.90
790;DHT22;378;48.844;9.156;2023-05-10T02:49:03;12.10;99.90
790;DHT22;378;48.844;9.156;2023-05-10T02:51:32;12.10;99.90
790;DHT22;378;48.844;9.156;2023-05-10T02:54:06;12.20;99.90
790;DHT22;378;48.844;9.156;2023-05-10T02:56:42;12.10;99.90
790;DHT22;378;48.844;9.156;2023-05-10T02:59:13;12.20;99.90
790;DHT22;378;48.844;9.156;2023-05-10T03:01:40;12.20;99.90
790;DHT22;378;48.844;9.156;2023-05-10T03:04:07;12.20;99.90
790;DHT22;378;48.844;9.156;2023-05-10T03:06:34;12.20;99.90
790;DHT22;378;48.844;9.156;2023-05-10T03:09:02;12.20;99.90
790;DHT22;378;48.844;9.156;2023-05-10T03:11:43;12.20;99.90
790;DHT22;378;48.844;9.156;2023-05-10T03:14:21;12.20;99.90
790;DHT22;378;48.844;9.156;2023-05-10T03:16:56;12.20;99.90
790;DHT22;378;48.844;9.156;2023-05-10T03:19:30;12.20;99.90
790;DHT22;378;48.844;9.156;2023-05-10T03:21:59;12.20;99.90
790;DHT22;378;48.844;9.156;2023-05-10T03:24:30;12.20;99.90
790;DHT22;378;48.844;9.156;2023-05-10T03:27:00;12.20;99.90
790;DHT22;378;48.844;9.156;2023-05-10T03:29:29;12.20;99.90
790;DHT22;378;48.844;9.156;2023-05-10T03:31:57;12.20;99.90
790;DHT22;378;48.844;9.156;2023-05-10T03:34:25;12.30;99.90
790;DHT22;378;48.844;9.156;2023-05-10T03:36:52;12.20;99.90
790;DHT22;378;48.844;9.156;2023-05-10T03:39:19;12.20;99.90
790;DHT22;378;48.844;9.156;2023-05-10T03:41:46;12.30;99.90
790;DHT22;378;48.844;9.156;2023-05-10T03:44:14;12.20;99.90
790;DHT22;378;48.844;9.156;2023-05-10T03:46:41;12.30;99.90
790;DHT22;378;48.844;9.156;2023-05-10T03:49:08;12.30;99.90
790;DHT22;378;48.844;9.156;2023-05-10T03:51:35;12.30;99.90
790;DHT22;378;48.844;9.156;2023-05-10T03:54:02;12.30;99.90
790;DHT22;378;48.844;9.156;2023-05-10T03:56:29;12.20;99.90
790;DHT22;378;48.844;9.156;2023-05-10T03:58:55;12.30;99.90
790;DHT22;378;48.844;9.156;2023-05-10T04:01:24;12.20;99.90
790;DHT22;378;48.844;9.156;2023-05-10T04:03:51;12.20;99.90
790;DHT22;378;48.844;9.156;2023-05-10T04:06:17;12.30;99.90
790;DHT22;378;48.844;9.156;2023-05-10T04:08:44;12.30;99.90
790;DHT22;378;48.844;9.156;2023-05-10T04:11:11;12.30;99.90
790;DHT22;378;48.844;9.156;2023-05-10T04:13:39;12.30;99.90
790;DHT22;378;48.844;9.156;2023-05-10T04:16:06;12.40;99.90
790;DHT22;378;48.844;9.156;2023-05-10T04:18:35;12.40;99.90
790;DHT22;378;48.844;9.156;2023-05-10T04:21:02;12.50;99.90
790;DHT22;378;48.844;9.156;2023-05-10T04:23:29;12.50;99.90
790;DHT22;378;48.844;9.156;2023-05-10T04:25:59;12.50;99.90
790;DHT22;378;48.844;9.156;2023-05-10T04:28:27;12.60;99.90
790;DHT22;378;48.844;9.156;2023-05-10T04:31:00;12.60;99.90
790;DHT22;378;48.844;9.156;2023-05-10T04:33:27;12.60;99.90
790;DHT22;378;48.844;9.156;2023-05-10T04:35:55;12.70;99.90
790;DHT22;378;48.844;9.156;2023-05-10T04:38:22;12.70;99.90
790;DHT22;378;48.844;9.156;2023-05-10T04:40:49;12.70;99.90
790;DHT22;378;48.844;9.156;2023-05-10T04:43:16;12.70;99.90
790;DHT22;378;48.844;9.156;2023-05-10T04:45:43;12.70;99.90
790;DHT22;378;48.844;9.156;2023-05-10T04:48:09;12.70;99.90
790;DHT22;378;48.844;9.156;2023-05-10T04:50:36;12.70;99.90
790;DHT22;378;48.844;9.156;2023-05-10T04:53:04;12.70;99.90
790;DHT22;378;48.844;9.156;2023-05-10T04:55:32;12.70;99.90
790;DHT22;378;48.844;9.156;2023-05-10T04:57:58;12.70;99.90
790;DHT22;378;48.844;9.156;2023-05-10T05:00:26;12.70;99.90
790;DHT22;378;48.844;9.156;2023-05-10T05:02:52;12.80;99.90
790;DHT22;378;48.844;9.156;2023-05-10T05:05:19;12.90;99.90
790;DHT22;378;48.844;9.156;2023-05-10T05:07:46;13.00;99.90
790;DHT22;378;48.844;9.156;2023-05-10T05:10:14;13.10;99.90
790;DHT22;378;48.844;9.156;2023-05-10T05:12:41;13.10;99.90
790;DHT22;378;48.844;9.156;2023-05-10T05:15:08;13.20;99.90
790;DHT22;378;48.844;9.156;2023-05-10T05:17:36;13.30;99.90
790;DHT22;378;48.844;9.156;2023-05-10T05:20:03;13.30;99.90
790;DHT22;378;48.844;9.156;2023-05-10T05:22:30;13.40;99.90
790;DHT22;378;48.844;9.156;2023-05-10T05:24:57;13.60;99.90
790;DHT22;378;48.844;9.156;2023-05-10T05:27:26;13.60;99.90
790;DHT22;378;48.844;9.156;2023-05-10T05:29:53;13.60;99.90
790;DHT22;378;48.844;9.156;2023-05-10T05:32:20;13.80;99.90
790;DHT22;378;48.844;9.156;2023-05-10T05:34:47;14.00;99.90
790;DHT22;378;48.844;9.156;2023-05-10T05:37:15;14.10;99.90
790;DHT22;378;48.844;9.156;2023-05-10T05:39:41;14.30;99.90
790;DHT22;378;48.844;9.156;2023-05-10T05:42:09;14.40;99.90
790;DHT22;378;48.844;9.156;2023-05-10T05:44:37;14.50;99.90
790;DHT22;378;48.844;9.156;2023-05-10T05:47:05;14.50;99.90
790;DHT22;378;48.844;9.156;2023-05-10T05:49:32;14.60;99.90
790;DHT22;378;48.844;9.156;2023-05-10T05:51:59;14.70;99.90
790;DHT22;378;48.844;9.156;2023-05-10T05:54:26;14.70;99.90
790;DHT22;378;48.844;9.156;2023-05-10T05:56:54;14.50;99.90
790;DHT22;378;48.844;9.156;2023-05-10T05:59:21;14.50;99.90
790;DHT22;378;48.844;9.156;2023-05-10T06:01:49;14.40;99.90
790;DHT22;378;48.844;9.156;2023-05-10T06:04:17;14.40;99.90
790;DHT22;378;48.844;9.156;2023-05-10T06:06:44;14.30;99.90
790;DHT22;378;48.844;9.156;2023-05-10T06:09:11;14.30;99.90
790;DHT22;378;48.844;9.156;2023-05-10T06:11:38;14.30;99.90
790;DHT22;378;48.844;9.156;2023-05-10T06:14:05;14.30;99.90
790;DHT22;378;48.844;9.156;2023-05-10T06:16:33;14.40;99.90
790;DHT22;378;48.844;9.156;2023-05-10T06:19:01;14.50;99.90
790;DHT22;378;48.844;9.156;2023-05-10T06:21:28;14.60;99.90
790;DHT22;378;48.844;9.156;2023-05-10T06:23:55;14.60;99.90
790;DHT22;378;48.844;9.156;2023-05-10T06:26:22;14.50;99.90
790;DHT22;378;48.844;9.156;2023-05-10T06:28:49;14.40;99.90
790;DHT22;378;48.844;9.156;2023-05-10T06:31:15;14.30;99.90
790;DHT22;378;48.844;9.156;2023-05-10T06:33:43;14.30;99.90
790;DHT22;378;48.844;9.156;2023-05-10T06:36:11;14.20;99.90
790;DHT22;378;48.844;9.156;2023-05-10T06:38:38;14.30;99.90
790;DHT22;378;48.844;9.156;2023-05-10T06:41:05;14.50;99.90
790;DHT22;378;48.844;9.156;2023-05-10T06:43:32;14.70;99.90
790;DHT22;378;48.844;9.156;2023-05-10T06:45:59;14.70;99.90
790;DHT22;378;48.844;9.156;2023-05-10T06:48:26;14.70;99.90
790;DHT22;378;48.844;9.156;2023-05-10T06:50:53;14.60;99.90
790;DHT22;378;48.844;9.156;2023-05-10T06:53:21;14.60;99.90
790;DHT22;378;48.844;9.156;2023-05-10T06:55:49;14.70;99.90
790;DHT22;378;48.844;9.156;2023-05-10T06:58:16;14.70;99.90
790;DHT22;378;48.844;9.156;2023-05-10T07:00:43;15.00;99.90
790;DHT22;378;48.844;9.156;2023-05-10T07:03:10;14.90;99.90
790;DHT22;378;48.844;9.156;2023-05-10T07:05:37;14.90;99.90
790;DHT22;378;48.844;9.156;2023-05-10T07:08:04;15.00;99.90
790;DHT22;378;48.844;9.156;2023-05-10T07:10:32;14.90;99.90
790;DHT22;378;48.844;9.156;2023-05-10T07:12:59;14.80;99.90
790;DHT22;378;48.844;9.156;2023-05-10T07:15:26;14.90;99.90
790;DHT22;378;48.844;9.156;2023-05-10T07:17:54;15.00;99.90
790;DHT22;378;48.844;9.156;2023-05-10T07:20:20;15.20;99.90
790;DHT22;378;48.844;9.156;2023-05-10T07:22:47;15.40;99.90
790;DHT22;378;48.844;9.156;2023-05-10T07:25:14;15.40;99.90
790;DHT22;378;48.844;9.156;2023-05-10T07:27:42;15.40;99.90
790;DHT22;378;48.844;9.156;2023-05-10T07:30:10;15.40;99.90
790;DHT22;378;48.844;9.156;2023-05-10T07:32:37;15.80;99.90
790;DHT22;378;48.844;9.156;2023-05-10T07:35:05;15.90;99.90
790;DHT22;378;48.844;9.156;2023-05-10T07:37:32;16.10;99.90
790;DHT22;378;48.844;9.156;2023-05-10T07:39:59;16.60;99.90
790;DHT22;378;48.844;9.156;2023-05-10T07:42:25;17.00;99.90
790;DHT22;378;48.844;9.156;2023-05-10T07:44:54;17.10;99.90
790;DHT22;378;48.844;9.156;2023-05-10T07:47:20;17.00;99.90
790;DHT22;378;48.844;9.156;2023-05-10T07:49:47;16.70;99.90
790;DHT22;378;48.844;9.156;2023-05-10T07:52:14;16.40;99.90
790;DHT22;378;48.844;9.156;2023-05-10T07:54:41;16.10;99.90
790;DHT22;378;48.844;9.156;2023-05-10T07:57:08;16.00;99.90
790;DHT22;378;48.844;9.156;2023-05-10T07:59:34;16.40;99.90
790;DHT22;378;48.844;9.156;2023-05-10T08:02:03;16.70;99.90
790;DHT22;378;48.844;9.156;2023-05-10T08:04:30;17.00;99.90
790;DHT22;378;48.844;9.156;2023-05-10T08:06:56;16.80;99.90
790;DHT22;378;48.844;9.156;2023-05-10T08:09:23;16.50;99.90
790;DHT22;378;48.844;9.156;2023-05-10T08:11:50;16.30;99.90
790;DHT22;378;48.844;9.156;2023-05-10T08:14:17;16.30;99.90
790;DHT22;378;48.844;9.156;2023-05-10T08:16:44;16.30;99.90
790;DHT22;378;48.844;9.156;2023-05-10T08:19:12;16.30;99.90
790;DHT22;378;48.844;9.156;2023-05-10T08:21:39;16.30;99.90
790;DHT22;378;48.844;9.156;2023-05-10T08:24:07;16.30;99.90
790;DHT22;378;48.844;9.156;2023-05-10T08:26:34;16.50;99.90
790;DHT22;378;48.844;9.156;2023-05-10T08:29:01;16.70;99.90
790;DHT22;378;48.844;9.156;2023-05-10T08:31:28;16.90;99.90
790;DHT22;378;48.844;9.156;2023-05-10T08:33:55;16.80;99.90
790;DHT22;378;48.844;9.156;2023-05-10T08:36:23;17.00;99.90
790;DHT22;378;48.844;9.156;2023-05-10T08:38:51;17.10;99.90
790;DHT22;378;48.844;9.156;2023-05-10T08:41:19;17.20;99.90
790;DHT22;378;48.844;9.156;2023-05-10T08:43:47;17.20;99.90
790;DHT22;378;48.844;9.156;2023-05-10T08:46:16;17.10;99.90
790;DHT22;378;48.844;9.156;2023-05-10T08:48:44;17.30;99.90
790;DHT22;378;48.844;9.156;2023-05-10T08:51:14;17.60;99.90
790;DHT22;378;48.844;9.156;2023-05-10T08:53:43;18.00;99.90
790;DHT22;378;48.844;9.156;2023-05-10T08:56:10;18.00;99.90
790;DHT22;378;48.844;9.156;2023-05-10T08:58:37;18.20;99.90
790;DHT22;378;48.844;9.156;2023-05-10T09:01:05;18.50;99.90
790;DHT22;378;48.844;9.156;2023-05-10T09:03:32;18.40;99.90
790;DHT22;378;48.844;9.156;2023-05-10T09:05:59;18.30;99.90
790;DHT22;378;48.844;9.156;2023-05-10T09:08:26;18.20;99.90
790;DHT22;378;48.844;9.156;2023-05-10T09:10:54;18.00;99.90
790;DHT22;378;48.844;9.156;2023-05-10T09:13:22;18.30;99.90
790;DHT22;378;48.844;9.156;2023-05-10T09:15:50;18.50;99.90
790;DHT22;378;48.844;9.156;2023-05-10T09:18:17;18.60;99.90
790;DHT22;378;48.844;9.156;2023-05-10T09:20:44;18.90;99.90
790;DHT22;378;48.844;9.156;2023-05-10T09:23:11;19.00;99.90
790;DHT22;378;48.844;9.156;2023-05-10T09:25:38;18.90;99.90
790;DHT22;378;48.844;9.156;2023-05-10T09:28:08;18.50;99.90
790;DHT22;378;48.844;9.156;2023-05-10T09:30:36;18.40;99.90
790;DHT22;378;48.844;9.156;2023-05-10T09:33:03;18.20;99.90
790;DHT22;378;48.844;9.156;2023-05-10T09:35:31;18.10;99.90
790;DHT22;378;48.844;9.156;2023-05-10T09:38:00;18.40;99.90
790;DHT22;378;48.844;9.156;2023-05-10T09:40:29;18.80;99.90
790;DHT22;378;48.844;9.156;2023-05-10T09:42:57;19.40;99.90
790;DHT22;378;48.844;9.156;2023-05-10T09:45:27;19.50;99.90
790;DHT22;378;48.844;9.156;2023-05-10T09:47:54;19.30;99.90
790;DHT22;378;48.844;9.156;2023-05-10T09:50:22;19.10;99.90
790;DHT22;378;48.844;9.156;2023-05-10T09:52:51;18.90;99.90
790;DHT22;378;48.844;9.156;2023-05-10T09:55:19;18.80;99.90
790;DHT22;378;48.844;9.156;2023-05-10T09:57:47;18.70;99.90
790;DHT22;378;48.844;9.156;2023-05-10T10:00:18;18.20;99.90
790;DHT22;378;48.844;9.156;2023-05-10T10:02:48;17.80;99.90
790;DHT22;378;48.844;9.156;2023-05-10T10:05:15;18.00;99.90
790;DHT22;378;48.844;9.156;2023-05-10T10:07:42;17.70;99.90
790;DHT22;378;48.844;9.156;2023-05-10T10:10:09;17.60;99.90
790;DHT22;378;48.844;9.156;2023-05-10T10:12:39;17.60;99.90
790;DHT22;378;48.844;9.156;2023-05-10T10:15:07;17.70;99.90
790;DHT22;378;48.844;9.156;2023-05-10T10:17:35;17.50;99.90
790;DHT22;378;48.844;9.156;2023-05-10T10:20:05;17.50;99.90
790;DHT22;378;48.844;9.156;2023-05-10T10:22:33;17.70;99.90
790;DHT22;378;48.844;9.156;2023-05-10T10:24:59;18.10;99.90
790;DHT22;378;48.844;9.156;2023-05-10T10:27:35;17.90;99.90
790;DHT22;378;48.844;9.156;2023-05-10T10:30:12;17.80;99.90
790;DHT22;378;48.844;9.156;2023-05-10T10:33:01;18.20;99.90
790;DHT22;378;48.844;9.156;2023-05-10T10:35:34;18.30;99.90
790;DHT22;378;48.844;9.156;2023-05-10T10:38:02;18.30;99.90
790;DHT22;378;48.844;9.156;2023-05-10T10:40:30;18.00;99.90
790;DHT22;378;48.844;9.156;2023-05-10T10:42:58;18.20;99.90
790;DHT22;378;48.844;9.156;2023-05-10T10:45:48;18.50;99.90
790;DHT22;378;48.844;9.156;2023-05-10T10:48:36;18.90;99.90
790;DHT22;378;48.844;9.156;2023-05-10T10:51:05;19.50;99.90
790;DHT22;378;48.844;9.156;2023-05-10T10:53:32;19.50;99.90
790;DHT22;378;48.844;9.156;2023-05-10T10:56:05;19.70;99.90
790;DHT22;378;48.844;9.156;2023-05-10T10:58:34;20.20;99.90
790;DHT22;378;48.844;9.156;2023-05-10T11:01:22;20.70;99.90
790;DHT22;378;48.844;9.156;2023-05-10T11:04:17;20.70;99.90
790;DHT22;378;48.844;9.156;2023-05-10T11:06:46;20.30;99.90
790;DHT22;378;48.844;9.156;2023-05-10T11:09:13;20.70;99.90
790;DHT22;378;48.844;9.156;2023-05-10T11:11:51;21.00;99.90
790;DHT22;378;48.844;9.156;2023-05-10T11:14:21;20.70;99.90
790;DHT22;378;48.844;9.156;2023-05-10T11:16:48;20.80;99.90
790;DHT22;378;48.844;9.156;2023-05-10T11:19:16;20.50;99.90
790;DHT22;378;48.844;9.156;2023-05-10T11:21:49;20.40;99.90
790;DHT22;378;48.844;9.156;2023-05-10T11:24:18;20.60;99.90
790;DHT22;378;48.844;9.156;2023-05-10T11:26:45;20.30;99.90
790;DHT22;378;48.844;9.156;2023-05-10T11:29:13;20.00;99.90
790;DHT22;378;48.844;9.156;2023-05-10T11:31:43;20.00;99.90
790;DHT22;378;48.844;9.156;2023-05-10T11:34:13;19.40;99.90
790;DHT22;378;48.844;9.156;2023-05-10T11:36:52;19.30;99.90
790;DHT22;378;48.844;9.156;2023-05-10T11:39:20;18.90;99.90
790;DHT22;378;48.844;9.156;2023-05-10T11:41:48;19.00;99.90
790;DHT22;378;48.844;9.156;2023-05-10T11:44:15;19.20;99.90
790;DHT22;378;48.844;9.156;2023-05-10T11:46:42;19.80;99.90
790;DHT22;378;48.844;9.156;2023-05-10T11:49:10;20.70;99.90
790;DHT22;378;48.844;9.156;2023-05-10T11:51:38;20.70;99.90
790;DHT22;378;48.844;9.156;2023-05-10T11:54:10;19.90;99.90
790;DHT22;378;48.844;9.156;2023-05-10T11:56:37;19.40;99.90
790;DHT22;378;48.844;9.156;2023-05-10T11:59:04;19.00;99.90
790;DHT22;378;48.844;9.156;2023-05-10T12:01:31;18.70;99.90
790;DHT22;378;48.844;9.156;2023-05-10T12:03:59;18.50;99.90
790;DHT22;378;48.844;9.156;2023-05-10T12:06:28;18.20;99.90
790;DHT22;378;48.844;9.156;2023-05-10T12:08:57;18.20;99.90
790;DHT22;378;48.844;9.156;2023-05-10T12:11:27;18.10;99.90
790;DHT22;378;48.844;9.156;2023-05-10T12:13:57;18.10;99.90
790;DHT22;378;48.844;9.156;2023-05-10T12:16:25;18.20;99.90
790;DHT22;378;48.844;9.156;2023-05-10T12:18:55;18.10;99.90
790;DHT22;378;48.844;9.156;2023-05-10T12:21:22;17.90;99.90
790;DHT22;378;48.844;9.156;2023-05-10T12:23:51;17.50;99.90
790;DHT22;378;48.844;9.156;2023-05-10T12:26:18;17.30;99.90
790;DHT22;378;48.844;9.156;2023-05-10T12:28:51;17.10;99.90
790;DHT22;378;48.844;9.156;2023-05-10T12:31:18;17.40;99.90
790;DHT22;378;48.844;9.156;2023-05-10T12:33:45;17.90;99.90
790;DHT22;378;48.844;9.156;2023-05-10T12:36:14;18.50;99.90
790;DHT22;378;48.844;9.156;2023-05-10T12:38:42;19.30;99.90
790;DHT22;378;48.844;9.156;2023-05-10T12:41:10;19.70;99.90
790;DHT22;378;48.844;9.156;2023-05-10T12:43:38;19.90;99.90
790;DHT22;378;48.844;9.156;2023-05-10T12:46:07;19.40;99.90
790;DHT22;378;48.844;9.156;2023-05-10T12:48:34;18.80;99.90
790;DHT22;378;48.844;9.156;2023-05-10T12:51:02;19.00;99.90
790;DHT22;378;48.844;9.156;2023-05-10T12:53:29;18.70;99.90
790;DHT22;378;48.844;9.156;2023-05-10T12:55:56;18.70;99.90
790;DHT22;378;48.844;9.156;2023-05-10T12:58:23;18.90;99.90
790;DHT22;378;48.844;9.156;2023-05-10T13:00:50;19.10;99.90
790;DHT22;378;48.844;9.156;2023-05-10T13:03:19;19.40;99.90
790;DHT22;378;48.844;9.156;2023-05-10T13:05:46;19.50;99.90
790;DHT22;378;48.844;9.156;2023-05-10T13:08:12;19.40;99.90
790;DHT22;378;48.844;9.156;2023-05-10T13:10:39;19.60;99.90
790;DHT22;378;48.844;9.156;2023-05-10T13:13:07;19.80;99.90
790;DHT22;378;48.844;9.156;2023-05-10T13:15:34;19.70;99.90
790;DHT22;378;48.844;9.156;2023-05-10T13:18:01;19.40;99.90
790;DHT22;378;48.844;9.156;2023-05-10T13:20:29;19.40;99.90
790;DHT22;378;48.844;9.156;2023-05-10T13:22:56;19.20;99.90
790;DHT22;378;48.844;9.156;2023-05-10T13:25:23;19.20;99.90
790;DHT22;378;48.844;9.156;2023-05-10T13:27:50;18.60;99.90
790;DHT22;378;48.844;9.156;2023-05-10T13:30:17;18.70;99.90
790;DHT22;378;48.844;9.156;2023-05-10T13:32:43;18.50;99.90
790;DHT22;378;48.844;9.156;2023-05-10T13:35:11;18.50;99.90
790;DHT22;378;48.844;9.156;2023-05-10T13:37:39;18.60;99.90
790;DHT22;378;48.844;9.156;2023-05-10T13:40:07;18.60;99.90
790;DHT22;378;48.844;9.156;2023-05-10T13:42:34;18.60;99.90
790;DHT22;378;48.844;9.156;2023-05-10T13:45:00;18.60;99.90
790;DHT22;378;48.844;9.156;2023-05-10T13:47:27;18.60;99.90
790;DHT22;378;48.844;9.156;2023-05-10T13:49:54;18.70;99.90
790;DHT22;378;48.844;9.156;2023-05-10T13:52:21;18.90;99.90
790;DHT22;378;48.844;9.156;2023-05-10T13:54:49;19.10;99.90
790;DHT22;378;48.844;9.156;2023-05-10T13:57:17;19.20;99.90
790;DHT22;378;48.844;9.156;2023-05-10T13:59:44;19.10;99.90
790;DHT22;378;48.844;9.156;2023-05-10T14:02:11;18.90;99.90
790;DHT22;378;48.844;9.156;2023-05-10T14:04:38;18.70;99.90
790;DHT22;378;48.844;9.156;2023-05-10T14:07:05;18.60;99.90
790;DHT22;378;48.844;9.156;2023-05-10T14:09:32;18.60;99.90
790;DHT22;378;48.844;9.156;2023-05-10T14:12:00;18.30;99.90
790;DHT22;378;48.844;9.156;2023-05-10T14:14:27;18.20;99.90
790;DHT22;378;48.844;9.156;2023-05-10T14:16:54;18.20;99.90
790;DHT22;378;48.844;9.156;2023-05-10T14:19:21;18.30;99.90
790;DHT22;378;48.844;9.156;2023-05-10T14:21:48;18.50;99.90
790;DHT22;378;48.844;9.156;2023-05-10T14:24:15;18.80;99.90
790;DHT22;378;48.844;9.156;2023-05-10T14:26:42;19.20;99.90
790;DHT22;378;48.844;9.156;2023-05-10T14:29:10;19.70;99.90
790;DHT22;378;48.844;9.156;2023-05-10T14:31:37;19.90;99.90
790;DHT22;378;48.844;9.156;2023-05-10T14:34:03;20.10;99.90
790;DHT22;378;48.844;9.156;2023-05-10T14:36:31;20.00;99.90
790;DHT22;378;48.844;9.156;2023-05-10T14:38:57;19.70;99.90
790;DHT22;378;48.844;9.156;2023-05-10T14:41:24;19.50;99.90
790;DHT22;378;48.844;9.156;2023-05-10T14:43:52;19.50;99.90
790;DHT22;378;48.844;9.156;2023-05-10T14:46:20;19.40;99.90
790;DHT22;378;48.844;9.156;2023-05-10T14:48:47;19.40;99.90
790;DHT22;378;48.844;9.156;2023-05-10T14:51:14;19.30;99.90
790;DHT22;378;48.844;9.156;2023-05-10T14:53:40;19.60;99.90
790;DHT22;378;48.844;9.156;2023-05-10T14:56:07;19.60;99.90
790;DHT22;378;48.844;9.156;2023-05-10T14:58:34;19.60;99.90
790;DHT22;378;48.844;9.156;2023-05-10T15:01:01;19.50;99.90
790;DHT22;378;48.844;9.156;2023-05-10T15:03:29;19.30;99.90
790;DHT22;378;48.844;9.156;2023-05-10T15:05:56;19.20;99.90
790;DHT22;378;48.844;9.156;2023-05-10T15:08:23;19.40;99.90
790;DHT22;378;48.844;9.156;2023-05-10T15:10:50;18.90;99.90
790;DHT22;378;48.844;9.156;2023-05-10T15:13:17;18.80;99.90
790;DHT22;378;48.844;9.156;2023-05-10T15:15:44;18.70;99.90
790;DHT22;378;48.844;9.156;2023-05-10T15:18:11;18.90;99.90
790;DHT22;378;48.844;9.156;2023-05-10T15:20:39;19.10;99.90
790;DHT22;378;48.844;9.156;2023-05-10T15:23:06;19.20;99.90
790;DHT22;378;48.844;9.156;2023-05-10T15:25:32;19.30;99.90
790;DHT22;378;48.844;9.156;2023-05-10T15:28:03;19.10;99.90
790;DHT22;378;48.844;9.156;2023-05-10T15:30:30;19.20;99.90
790;DHT22;378;48.844;9.156;2023-05-10T15:32:57;19.40;99.90
790;DHT22;378;48.844;9.156;2023-05-10T15:35:24;19.30;99.90
790;DHT22;378;48.844;9.156;2023-05-10T15:37:53;19.40;99.90
790;DHT22;378;48.844;9.156;2023-05-10T15:40:20;19.40;99.90
790;DHT22;378;48.844;9.156;2023-05-10T15:42:46;19.30;99.90
790;DHT22;378;48.844;9.156;2023-05-10T15:45:14;19.10;99.90
790;DHT22;378;48.844;9.156;2023-05-10T15:47:41;19.30;99.90
790;DHT22;378;48.844;9.156;2023-05-10T15:50:09;19.30;99.90
790;DHT22;378;48.844;9.156;2023-05-10T15:52:36;19.50;99.90
790;DHT22;378;48.844;9.156;2023-05-10T15:55:06;19.50;99.90
790;DHT22;378;48.844;9.156;2023-05-10T15:57:37;19.50;99.90
790;DHT22;378;48.844;9.156;2023-05-10T16:00:05;19.50;99.90
790;DHT22;378;48.844;9.156;2023-05-10T16:02:32;19.60;99.90
790;DHT22;378;48.844;9.156;2023-05-10T16:04:59;19.70;99.90
790;DHT22;378;48.844;9.156;2023-05-10T16:07:26;19.80;99.90
790;DHT22;378;48.844;9.156;2023-05-10T16:09:53;19.80;99.90
790;DHT22;378;48.844;9.156;2023-05-10T16:12:21;19.50;99.90
790;DHT22;378;48.844;9.156;2023-05-10T16:14:48;19.10;99.90
790;DHT22;378;48.844;9.156;2023-05-10T16:17:15;19.00;99.90
790;DHT22;378;48.844;9.156;2023-05-10T16:19:43;19.00;99.90
790;DHT22;378;48.844;9.156;2023-05-10T16:22:11;18.70;99.90
790;DHT22;378;48.844;9.156;2023-05-10T16:24:38;18.60;99.90
790;DHT22;378;48.844;9.156;2023-05-10T16:27:05;18.60;99.90
790;DHT22;378;48.844;9.156;2023-05-10T16:29:33;18.70;99.90
790;DHT22;378;48.844;9.156;2023-05-10T16:32:00;18.60;99.90
790;DHT22;378;48.844;9.156;2023-05-10T16:34:27;18.40;99.90
790;DHT22;378;48.844;9.156;2023-05-10T16:36:54;18.40;99.90
790;DHT22;378;48.844;9.156;2023-05-10T16:39:20;18.50;99.90
790;DHT22;378;48.844;9.156;2023-05-10T16:41:47;18.40;99.90